Time;durP1;ratioP1;P1;durP2;ratioP2;P2;SDS_P1;SDS_P2;PMS_P1;PMS_P2;Temp;Humidity;BMP_temperature;BMP_pressure;BME280_temperature;BME280_humidity;BME280_pressure;Samples;Min_cycle;Max_cycle;Signal;HPM_P1;HPM_P2
2024/02/06 00:01:40;;;;;;;11.40;3.40;;;8.60;99.90;;;;;;4216857;28;20250;-78
2024/02/06 00:03:41;;;;;;;13.40;3.40;;;8.60;99.90;;;;;;4221672;28;20207;-77
2024/02/06 00:05:43;;;;;;;10.23;3.63;;;8.60;99.90;;;;;;4219809;28;20651;-78
2024/02/06 00:07:45;;;;;;;14.83;3.77;;;8.60;99.90;;;;;;4225402;28;20194;-78
2024/02/06 00:09:46;;;;;;;15.77;3.50;;;8.60;99.90;;;;;;4208069;28;20233;-78
2024/02/06 00:11:48;;;;;;;15.33;3.50;;;8.50;99.90;;;;;;4225878;28;20199;-78
2024/02/06 00:13:52;;;;;;;16.50;3.83;;;8.50;99.90;;;;;;4216684;28;20196;-78
2024/02/06 00:15:58;;;;;;;12.83;3.97;;;8.50;99.90;;;;;;4218759;28;20223;-78
2024/02/06 00:18:00;;;;;;;16.33;4.17;;;8.50;99.90;;;;;;4217062;28;20199;-78
2024/02/06 00:20:02;;;;;;;13.90;3.33;;;8.50;99.90;;;;;;4212189;28;20613;-78
2024/02/06 00:22:03;;;;;;;13.73;3.83;;;8.50;99.90;;;;;;4216223;28;20706;-78
2024/02/06 00:24:06;;;;;;;19.20;3.93;;;8.50;99.90;;;;;;4217967;28;20303;-77
2024/02/06 00:26:08;;;;;;;15.77;3.80;;;8.50;99.90;;;;;;4211414;28;20307;-77
2024/02/06 00:28:10;;;;;;;19.53;4.07;;;8.60;99.90;;;;;;4212729;28;20705;-77
2024/02/06 00:30:12;;;;;;;12.73;3.73;;;8.60;99.90;;;;;;4192737;28;20237;-78
2024/02/06 00:32:15;;;;;;;17.33;4.20;;;8.50;99.90;;;;;;4208971;28;20235;-78
2024/02/06 00:34:18;;;;;;;12.13;3.63;;;8.50;99.90;;;;;;4214992;28;20277;-78
2024/02/06 00:36:20;;;;;;;13.93;3.93;;;8.50;99.90;;;;;;4215744;28;20215;-78
2024/02/06 00:38:22;;;;;;;13.90;3.83;;;8.50;99.90;;;;;;4212958;28;20597;-78
2024/02/06 00:40:24;;;;;;;9.83;3.70;;;8.50;99.90;;;;;;4195717;28;20226;-79
2024/02/06 00:42:27;;;;;;;13.53;4.37;;;8.40;99.90;;;;;;4215764;28;20227;-79
2024/02/06 00:44:29;;;;;;;13.83;4.53;;;8.50;99.90;;;;;;4219942;28;20825;-78
2024/02/06 00:46:31;;;;;;;12.17;3.70;;;8.40;99.90;;;;;;4218120;28;20206;-78
2024/02/06 00:48:34;;;;;;;11.87;4.30;;;8.50;99.90;;;;;;4215666;28;20208;-79
2024/02/06 00:50:36;;;;;;;8.50;3.40;;;8.50;99.90;;;;;;4218617;28;20641;-78
2024/02/06 00:52:38;;;;;;;10.67;4.40;;;8.50;99.90;;;;;;4217065;28;20201;-78
2024/02/06 00:54:39;;;;;;;8.80;3.67;;;8.40;99.90;;;;;;4201884;28;20694;-79
2024/02/06 00:56:41;;;;;;;14.03;4.20;;;8.40;99.90;;;;;;4216588;28;20198;-79
2024/02/06 00:58:42;;;;;;;14.17;4.03;;;8.40;99.90;;;;;;4213868;28;20215;-78
2024/02/06 01:00:44;;;;;;;12.37;3.67;;;8.40;99.90;;;;;;4214451;28;20230;-78
2024/02/06 01:02:46;;;;;;;14.07;3.90;;;8.40;99.90;;;;;;4200415;28;20223;-78
2024/02/06 01:04:49;;;;;;;14.30;3.90;;;8.50;99.90;;;;;;4221166;28;20205;-77
2024/02/06 01:06:52;;;;;;;18.20;4.53;;;8.40;99.90;;;;;;4219347;28;20647;-78
2024/02/06 01:08:54;;;;;;;11.40;3.83;;;8.30;99.90;;;;;;4203082;28;20664;-77
2024/02/06 01:10:55;;;;;;;12.37;3.63;;;8.40;99.90;;;;;;4197882;28;20237;-78
2024/02/06 01:12:57;;;;;;;14.20;4.40;;;8.40;99.90;;;;;;4197461;28;20241;-78
2024/02/06 01:14:59;;;;;;;11.40;3.70;;;8.40;99.90;;;;;;4197804;28;20716;-79
2024/02/06 01:17:01;;;;;;;19.33;4.57;;;8.40;99.90;;;;;;4210040;28;20286;-78
2024/02/06 01:19:03;;;;;;;13.00;4.67;;;8.40;99.90;;;;;;4216330;28;20266;-78
2024/02/06 01:21:06;;;;;;;11.73;4.57;;;8.40;99.90;;;;;;4197715;28;20226;-78
2024/02/06 01:23:08;;;;;;;16.40;4.17;;;8.40;99.90;;;;;;4206999;28;20223;-78
2024/02/06 01:25:12;;;;;;;16.03;4.60;;;8.40;99.90;;;;;;4215632;28;20565;-78
2024/02/06 01:27:14;;;;;;;14.93;4.97;;;8.30;99.90;;;;;;4197401;28;20211;-78
2024/02/06 01:29:15;;;;;;;11.07;4.30;;;8.30;99.90;;;;;;4214854;28;20230;-78
2024/02/06 01:31:17;;;;;;;12.73;4.83;;;8.30;99.90;;;;;;4213901;28;20278;-77
2024/02/06 01:33:19;;;;;;;15.17;4.37;;;8.40;99.90;;;;;;4210248;28;20654;-77
2024/02/06 01:35:21;;;;;;;19.50;4.73;;;8.40;99.90;;;;;;4196228;28;20205;-77
2024/02/06 01:37:25;;;;;;;12.27;4.63;;;8.40;99.90;;;;;;4211843;28;20199;-78
2024/02/06 01:39:27;;;;;;;13.30;4.63;;;8.30;99.90;;;;;;4213657;28;20222;-77
2024/02/06 01:41:29;;;;;;;11.83;4.13;;;8.40;99.90;;;;;;4213253;28;20207;-77
2024/02/06 01:43:29;;;;;;;10.30;4.43;;;8.40;99.90;;;;;;4196399;28;20326;-77
2024/02/06 01:45:31;;;;;;;11.73;4.73;;;8.30;99.90;;;;;;4209788;28;20202;-77
2024/02/06 01:47:32;;;;;;;13.57;4.30;;;8.30;99.90;;;;;;4209724;28;20205;-81
2024/02/06 01:49:35;;;;;;;15.47;4.50;;;8.30;99.90;;;;;;4210967;28;20233;-79
2024/02/06 01:51:40;;;;;;;14.67;5.00;;;8.40;99.90;;;;;;4213605;28;20210;-77
2024/02/06 01:53:43;;;;;;;15.53;4.73;;;8.30;99.90;;;;;;4215549;28;20205;-77
2024/02/06 01:55:46;;;;;;;15.33;4.83;;;8.30;99.90;;;;;;4207813;28;20579;-78
2024/02/06 01:57:48;;;;;;;10.87;4.70;;;8.30;99.90;;;;;;4190890;28;21724;-78
2024/02/06 01:59:50;;;;;;;13.67;5.07;;;8.40;99.90;;;;;;4212988;28;20248;-77
2024/02/06 02:01:52;;;;;;;11.80;4.77;;;8.30;99.90;;;;;;4216084;28;20207;-77
2024/02/06 02:03:54;;;;;;;17.13;5.00;;;8.30;99.90;;;;;;4215391;28;20233;-77
2024/02/06 02:05:56;;;;;;;16.83;4.63;;;8.30;99.90;;;;;;4216923;28;20300;-76
2024/02/06 02:07:59;;;;;;;13.10;4.53;;;8.30;99.90;;;;;;4213917;28;20216;-77
2024/02/06 02:10:02;;;;;;;13.03;4.53;;;8.30;99.90;;;;;;4213791;28;20659;-78
2024/02/06 02:12:06;;;;;;;17.50;4.50;;;8.30;99.90;;;;;;4212155;28;20207;-78
2024/02/06 02:14:09;;;;;;;15.33;4.40;;;8.30;99.90;;;;;;4208657;28;20202;-78
2024/02/06 02:16:11;;;;;;;15.83;4.10;;;8.30;99.90;;;;;;4217339;28;20215;-76
2024/02/06 02:18:15;;;;;;;14.47;4.93;;;8.30;99.90;;;;;;4211059;28;20258;-76
2024/02/06 02:20:17;;;;;;;12.70;4.37;;;8.30;99.90;;;;;;4212375;28;20236;-78
2024/02/06 02:22:21;;;;;;;12.17;4.63;;;8.30;99.90;;;;;;4211783;28;20206;-79
2024/02/06 02:24:23;;;;;;;13.83;4.57;;;8.30;99.90;;;;;;4210645;28;20286;-77
2024/02/06 02:26:25;;;;;;;15.20;4.30;;;8.30;99.90;;;;;;4210232;28;20210;-78
2024/02/06 02:28:26;;;;;;;13.70;4.50;;;8.30;99.90;;;;;;4191270;28;20723;-78
2024/02/06 02:30:28;;;;;;;14.17;4.63;;;8.30;99.90;;;;;;4210553;28;20229;-77
2024/02/06 02:32:31;;;;;;;15.13;4.50;;;8.30;99.90;;;;;;4212267;28;20217;-78
2024/02/06 02:34:34;;;;;;;13.10;4.30;;;8.30;99.90;;;;;;4206624;28;20208;-79
2024/02/06 02:36:39;;;;;;;11.93;3.87;;;8.30;99.90;;;;;;4209937;28;20208;-78
2024/02/06 02:38:43;;;;;;;9.87;3.70;;;8.30;99.90;;;;;;4211560;28;20295;-78
2024/02/06 02:40:45;;;;;;;14.90;4.40;;;8.20;99.90;;;;;;4212427;28;20778;-78
2024/02/06 02:42:47;;;;;;;14.27;4.40;;;8.20;99.90;;;;;;4211464;28;20259;-78
2024/02/06 02:44:49;;;;;;;14.93;4.00;;;8.20;99.90;;;;;;4212154;28;20231;-77
2024/02/06 02:46:51;;;;;;;13.40;4.60;;;8.30;99.90;;;;;;4211624;28;20211;-79
2024/02/06 02:48:56;;;;;;;14.23;5.33;;;8.20;99.90;;;;;;4212303;28;20227;-77
2024/02/06 02:50:57;;;;;;;12.33;4.27;;;8.20;99.90;;;;;;4211912;28;20723;-77
2024/02/06 02:52:59;;;;;;;12.50;3.93;;;8.20;99.90;;;;;;4213268;28;20195;-77
2024/02/06 02:55:03;;;;;;;13.07;4.10;;;8.30;99.90;;;;;;4211364;28;20250;-78
2024/02/06 02:57:04;;;;;;;10.63;3.83;;;8.20;99.90;;;;;;4206847;28;20246;-77
2024/02/06 02:59:06;;;;;;;12.03;3.93;;;8.20;99.90;;;;;;4214920;28;20247;-78
2024/02/06 03:01:08;;;;;;;10.47;3.83;;;8.20;99.90;;;;;;4205439;28;20270;-78
2024/02/06 03:03:10;;;;;;;14.10;4.07;;;8.20;99.90;;;;;;4209308;28;20243;-77
2024/02/06 03:05:12;;;;;;;11.27;3.30;;;8.20;99.90;;;;;;4207073;28;20226;-77
2024/02/06 03:07:16;;;;;;;15.97;4.27;;;8.20;99.90;;;;;;4210870;28;20301;-78
2024/02/06 03:09:18;;;;;;;14.47;3.37;;;8.20;99.90;;;;;;4208021;28;20231;-79
2024/02/06 03:11:21;;;;;;;19.13;3.60;;;8.20;99.90;;;;;;4210476;28;20355;-77
2024/02/06 03:13:23;;;;;;;9.77;3.27;;;8.20;99.90;;;;;;4213342;28;20294;-77
2024/02/06 03:15:25;;;;;;;12.23;4.23;;;8.20;99.90;;;;;;4205115;28;20234;-78
2024/02/06 03:17:28;;;;;;;14.13;3.20;;;8.20;99.90;;;;;;4211642;28;20285;-77
2024/02/06 03:19:29;;;;;;;15.00;3.83;;;8.20;99.90;;;;;;4188390;28;20224;-78
2024/02/06 03:21:31;;;;;;;14.27;3.93;;;8.20;99.90;;;;;;4207759;28;20213;-77
2024/02/06 03:23:32;;;;;;;10.77;3.67;;;8.20;99.90;;;;;;4211068;28;20256;-77
2024/02/06 03:25:34;;;;;;;9.63;3.50;;;8.20;99.90;;;;;;4209925;28;20202;-77
2024/02/06 03:27:41;;;;;;;10.97;3.50;;;8.20;99.90;;;;;;4212071;28;20204;-78
2024/02/06 03:29:44;;;;;;;12.57;3.10;;;8.10;99.90;;;;;;4200794;28;20224;-77
2024/02/06 03:31:46;;;;;;;9.77;4.00;;;8.20;99.90;;;;;;4211001;28;20242;-76
2024/02/06 03:33:47;;;;;;;13.77;3.77;;;8.20;99.90;;;;;;4191812;28;20230;-77
2024/02/06 03:35:51;;;;;;;14.73;3.10;;;8.20;99.90;;;;;;4209627;28;20250;-77
2024/02/06 03:37:53;;;;;;;9.13;2.80;;;8.20;99.90;;;;;;4193128;28;20222;-76
2024/02/06 03:39:55;;;;;;;9.40;3.30;;;8.20;99.90;;;;;;4208871;28;20233;-79
2024/02/06 03:41:57;;;;;;;6.90;2.90;;;8.30;99.90;;;;;;4193290;28;20334;-77
2024/02/06 03:44:00;;;;;;;6.67;3.00;;;8.20;99.90;;;;;;4198944;28;20221;-78
2024/02/06 03:46:02;;;;;;;8.67;3.10;;;8.20;99.90;;;;;;4205421;28;20210;-77
2024/02/06 03:48:05;;;;;;;8.73;3.07;;;8.10;99.90;;;;;;4215426;28;20579;-77
2024/02/06 03:50:08;;;;;;;15.53;3.13;;;8.20;99.90;;;;;;4208846;28;20652;-79
2024/02/06 03:52:10;;;;;;;13.90;3.20;;;8.20;99.90;;;;;;4189414;28;20212;-77
2024/02/06 03:54:12;;;;;;;11.83;3.63;;;8.20;99.90;;;;;;4215414;28;20255;-77
2024/02/06 03:56:16;;;;;;;13.60;3.40;;;8.20;99.90;;;;;;4212070;28;20202;-77
2024/02/06 03:58:20;;;;;;;11.30;2.50;;;8.20;99.90;;;;;;4211644;28;20263;-77
2024/02/06 04:00:24;;;;;;;10.83;2.57;;;8.20;99.90;;;;;;4211294;28;21220;-77
2024/02/06 04:02:26;;;;;;;15.90;2.60;;;8.20;99.90;;;;;;4210741;28;20211;-77
2024/02/06 04:04:28;;;;;;;9.40;2.40;;;8.20;99.90;;;;;;4214377;28;20230;-77
2024/02/06 04:06:30;;;;;;;6.67;2.20;;;8.20;99.90;;;;;;4206960;28;20228;-79
2024/02/06 04:08:32;;;;;;;13.57;2.97;;;8.20;99.90;;;;;;4209300;28;20349;-77
2024/02/06 04:10:34;;;;;;;9.23;2.23;;;8.20;99.90;;;;;;4209797;28;20230;-77
2024/02/06 04:12:35;;;;;;;10.47;2.70;;;8.30;99.90;;;;;;4215434;28;20209;-76
2024/02/06 04:14:40;;;;;;;14.90;3.00;;;8.30;99.90;;;;;;4204939;28;20199;-76
2024/02/06 04:16:44;;;;;;;11.53;2.30;;;8.30;99.90;;;;;;4214465;28;20340;-76
2024/02/06 04:18:45;;;;;;;9.20;2.37;;;8.40;99.90;;;;;;4193670;28;20211;-77
2024/02/06 04:20:46;;;;;;;12.33;2.90;;;8.30;99.90;;;;;;4216486;28;20225;-78
2024/02/06 04:22:48;;;;;;;10.33;2.60;;;8.30;99.90;;;;;;4214879;28;20740;-78
2024/02/06 04:24:50;;;;;;;9.00;3.17;;;8.30;99.90;;;;;;4218941;28;20669;-77
2024/02/06 04:26:52;;;;;;;9.07;2.50;;;8.30;99.90;;;;;;4216924;28;20206;-76
2024/02/06 04:28:53;;;;;;;15.83;2.63;;;8.30;99.90;;;;;;4215193;28;20210;-78
2024/02/06 04:30:55;;;;;;;7.10;2.33;;;8.30;99.90;;;;;;4218738;28;20704;-76
2024/02/06 04:32:58;;;;;;;6.73;2.67;;;8.30;99.90;;;;;;4213017;28;20222;-77
2024/02/06 04:35:01;;;;;;;7.33;2.43;;;8.30;99.90;;;;;;4216635;28;20203;-77
2024/02/06 04:37:02;;;;;;;8.97;2.63;;;8.30;99.90;;;;;;4214543;28;20326;-76
2024/02/06 04:39:05;;;;;;;10.53;2.47;;;8.30;99.90;;;;;;4218152;28;20207;-76
2024/02/06 04:41:07;;;;;;;8.67;2.30;;;8.30;99.90;;;;;;4219589;28;20275;-77
2024/02/06 04:43:09;;;;;;;11.00;3.30;;;8.20;99.90;;;;;;4214854;28;20250;-76
2024/02/06 04:45:11;;;;;;;8.10;2.43;;;8.30;99.90;;;;;;4198243;28;20247;-77
2024/02/06 04:47:12;;;;;;;8.80;2.40;;;8.30;99.90;;;;;;4210017;28;20210;-76
2024/02/06 04:49:16;;;;;;;8.33;2.93;;;8.30;99.90;;;;;;4217217;28;20239;-77
2024/02/06 04:51:17;;;;;;;14.23;2.73;;;8.30;99.90;;;;;;4220769;28;20305;-77
2024/02/06 04:53:26;;;;;;;10.67;2.57;;;8.30;99.90;;;;;;4219228;28;20202;-82
2024/02/06 04:55:28;;;;;;;10.73;2.67;;;8.30;99.90;;;;;;4200826;28;20290;-78
2024/02/06 04:57:30;;;;;;;6.57;2.17;;;8.30;99.90;;;;;;4197265;28;20213;-78
2024/02/06 04:59:33;;;;;;;6.90;2.20;;;8.20;99.90;;;;;;4215440;28;20224;-78
2024/02/06 05:01:35;;;;;;;6.13;2.80;;;8.30;99.90;;;;;;4215322;28;20784;-78
2024/02/06 05:03:36;;;;;;;6.17;2.30;;;8.30;99.90;;;;;;4216667;28;20755;-78
2024/02/06 05:05:39;;;;;;;5.50;2.10;;;8.30;99.90;;;;;;4214905;28;20207;-78
2024/02/06 05:07:42;;;;;;;10.30;2.57;;;8.30;99.90;;;;;;4217799;28;20207;-77
2024/02/06 05:09:43;;;;;;;7.03;2.40;;;8.30;99.90;;;;;;4219359;28;20230;-79
2024/02/06 05:11:46;;;;;;;6.43;2.27;;;8.30;99.90;;;;;;4227642;28;20225;-79
2024/02/06 05:13:48;;;;;;;6.40;2.40;;;8.30;99.90;;;;;;4228695;28;20201;-78
2024/02/06 05:15:50;;;;;;;7.17;2.37;;;8.30;99.90;;;;;;4226223;28;20203;-78
2024/02/06 05:17:52;;;;;;;7.97;3.00;;;8.20;99.90;;;;;;4223822;28;20206;-79
2024/02/06 05:19:54;;;;;;;8.47;2.40;;;8.30;99.90;;;;;;4207323;28;20222;-79
2024/02/06 05:21:59;;;;;;;5.97;2.13;;;8.20;99.90;;;;;;4226753;28;20197;-78
2024/02/06 05:24:01;;;;;;;9.17;2.50;;;8.20;99.90;;;;;;4223678;28;20226;-78
2024/02/06 05:26:03;;;;;;;7.97;2.30;;;8.20;99.90;;;;;;4217928;28;20207;-78
2024/02/06 05:28:06;;;;;;;13.30;2.70;;;8.30;99.90;;;;;;4204085;28;20215;-79
2024/02/06 05:30:09;;;;;;;11.47;2.60;;;8.30;99.90;;;;;;4199985;28;20225;-78
2024/02/06 05:32:11;;;;;;;15.80;4.00;;;8.30;99.90;;;;;;4217651;28;20251;-79
2024/02/06 05:34:12;;;;;;;10.67;2.73;;;8.20;99.90;;;;;;4215573;28;20256;-79
2024/02/06 05:36:14;;;;;;;7.30;2.57;;;8.20;99.90;;;;;;4215104;28;20202;-79
2024/02/06 05:38:17;;;;;;;5.53;2.47;;;8.20;99.90;;;;;;4214090;28;20222;-79
2024/02/06 05:40:19;;;;;;;10.20;2.67;;;8.20;99.90;;;;;;4216000;28;20225;-79
2024/02/06 05:42:24;;;;;;;9.50;2.53;;;8.20;99.90;;;;;;4216591;28;20202;-78
2024/02/06 05:44:25;;;;;;;9.67;2.37;;;8.20;99.90;;;;;;4217210;28;20274;-81
2024/02/06 05:46:27;;;;;;;13.83;2.90;;;8.20;99.90;;;;;;4196804;28;20759;-79
2024/02/06 05:48:29;;;;;;;7.10;2.70;;;8.30;99.90;;;;;;4193520;28;20674;-81
2024/02/06 05:50:30;;;;;;;6.13;2.30;;;8.30;99.90;;;;;;4213822;28;20234;-78
2024/02/06 05:52:32;;;;;;;5.40;2.57;;;8.20;99.90;;;;;;4210771;28;20717;-78
2024/02/06 05:54:35;;;;;;;11.97;2.70;;;8.20;99.90;;;;;;4212477;28;20664;-78
2024/02/06 05:56:37;;;;;;;5.20;2.30;;;8.30;99.90;;;;;;4212399;28;20236;-78
2024/02/06 05:58:41;;;;;;;7.10;2.57;;;8.30;99.90;;;;;;4209622;28;20208;-78
2024/02/06 06:00:43;;;;;;;7.17;3.20;;;8.30;99.90;;;;;;4212231;28;20277;-78
2024/02/06 06:02:45;;;;;;;5.93;2.47;;;8.30;99.90;;;;;;4211797;28;20219;-78
2024/02/06 06:04:46;;;;;;;12.50;2.90;;;8.30;99.90;;;;;;4213738;28;20302;-78
2024/02/06 06:06:48;;;;;;;5.60;2.70;;;8.30;99.90;;;;;;4207820;28;20231;-78
2024/02/06 06:08:50;;;;;;;8.57;2.47;;;8.30;99.90;;;;;;4213997;28;20229;-78
2024/02/06 06:10:53;;;;;;;7.87;2.40;;;8.30;99.90;;;;;;4216372;28;20256;-78
2024/02/06 06:12:55;;;;;;;7.83;2.77;;;8.30;99.90;;;;;;4192221;28;20204;-79
2024/02/06 06:14:57;;;;;;;7.87;2.43;;;8.40;99.90;;;;;;4217802;28;20817;-79
2024/02/06 06:16:58;;;;;;;6.07;2.27;;;8.30;99.90;;;;;;4216242;28;20736;-79
2024/02/06 06:19:00;;;;;;;6.93;2.70;;;8.30;99.90;;;;;;4194899;28;20211;-78
2024/02/06 06:21:02;;;;;;;4.40;2.23;;;8.40;99.90;;;;;;4210485;28;20231;-76
2024/02/06 06:23:04;;;;;;;7.73;2.00;;;8.40;99.90;;;;;;4194847;28;20219;-75
2024/02/06 06:25:06;;;;;;;6.10;2.23;;;8.30;99.90;;;;;;4214189;28;20311;-77
2024/02/06 06:27:10;;;;;;;7.23;2.23;;;8.30;99.90;;;;;;4213414;28;20204;-79
2024/02/06 06:29:12;;;;;;;7.23;2.57;;;8.30;99.90;;;;;;4218363;28;20236;-77
2024/02/06 06:31:14;;;;;;;8.53;2.67;;;8.40;99.90;;;;;;4216882;28;20223;-78
2024/02/06 06:33:17;;;;;;;10.00;2.17;;;8.40;99.90;;;;;;4222443;28;20210;-76
2024/02/06 06:35:19;;;;;;;7.80;2.20;;;8.40;99.90;;;;;;4226425;28;20198;-80
2024/02/06 06:37:20;;;;;;;13.90;2.30;;;8.40;99.90;;;;;;4222172;28;20216;-79
2024/02/06 06:39:22;;;;;;;5.63;2.13;;;8.40;99.90;;;;;;4211327;28;20680;-78
2024/02/06 06:41:25;;;;;;;8.20;2.37;;;8.40;99.90;;;;;;4213945;28;20716;-76
2024/02/06 06:43:29;;;;;;;5.23;2.07;;;8.40;99.90;;;;;;4212727;28;20206;-77
2024/02/06 06:45:31;;;;;;;8.83;2.40;;;8.50;99.90;;;;;;4194503;28;20237;-76
2024/02/06 06:47:33;;;;;;;7.53;1.93;;;8.50;99.90;;;;;;4210077;28;20200;-76
2024/02/06 06:49:35;;;;;;;5.43;2.10;;;8.50;99.90;;;;;;4192368;28;20265;-73
2024/02/06 06:51:37;;;;;;;6.63;3.00;;;8.50;99.90;;;;;;4207989;28;20697;-75
2024/02/06 06:53:39;;;;;;;6.13;1.80;;;8.50;99.90;;;;;;4199517;28;20239;-75
2024/02/06 06:55:40;;;;;;;8.33;2.13;;;8.60;99.90;;;;;;4200702;28;20215;-75
2024/02/06 06:57:43;;;;;;;5.70;1.70;;;8.60;99.90;;;;;;4211733;28;20584;-75
2024/02/06 06:59:47;;;;;;;4.20;1.90;;;8.60;99.90;;;;;;4208303;28;20224;-75
2024/02/06 07:01:49;;;;;;;8.30;2.57;;;8.60;99.90;;;;;;4209775;28;20200;-76
2024/02/06 07:03:51;;;;;;;6.27;1.70;;;8.50;99.90;;;;;;4191733;28;20665;-75
2024/02/06 07:05:53;;;;;;;12.27;2.83;;;8.50;99.90;;;;;;4212276;28;20824;-75
2024/02/06 07:07:55;;;;;;;7.70;1.90;;;8.60;99.90;;;;;;4210009;28;20238;-75
2024/02/06 07:09:55;;;;;;;5.97;1.90;;;8.60;99.90;;;;;;4211708;28;20254;-76
2024/02/06 07:11:59;;;;;;;7.10;2.13;;;8.60;99.90;;;;;;4212335;28;20188;-75
2024/02/06 07:14:01;;;;;;;6.93;1.80;;;8.60;99.90;;;;;;4211799;28;20205;-76
2024/02/06 07:16:05;;;;;;;6.47;1.60;;;8.60;99.90;;;;;;4212374;28;20257;-76
2024/02/06 07:18:07;;;;;;;9.17;1.80;;;8.60;99.90;;;;;;4209739;28;20207;-73
2024/02/06 07:20:10;;;;;;;8.10;1.70;;;8.60;99.90;;;;;;4200161;28;20227;-75
2024/02/06 07:22:12;;;;;;;4.13;1.53;;;8.70;99.90;;;;;;4210380;28;20212;-77
2024/02/06 07:24:14;;;;;;;6.47;1.87;;;8.70;99.90;;;;;;4214939;28;20230;-77
2024/02/06 07:26:18;;;;;;;5.00;1.90;;;8.70;99.90;;;;;;4211753;28;20238;-78
2024/02/06 07:28:20;;;;;;;7.57;1.90;;;8.80;99.90;;;;;;4196610;28;20209;-77
2024/02/06 07:30:22;;;;;;;4.50;1.77;;;8.80;99.90;;;;;;4210673;28;20221;-78
2024/02/06 07:32:24;;;;;;;9.50;1.83;;;8.70;99.90;;;;;;4190318;28;20241;-77
2024/02/06 07:34:26;;;;;;;7.13;2.00;;;8.70;99.90;;;;;;4206843;28;20292;-78
2024/02/06 07:36:29;;;;;;;8.07;2.20;;;8.80;99.90;;;;;;4205161;28;20673;-78
2024/02/06 07:38:31;;;;;;;7.67;1.87;;;8.80;99.90;;;;;;4193414;28;20240;-78
2024/02/06 07:40:35;;;;;;;4.67;2.00;;;8.80;99.90;;;;;;4207427;28;21741;-78
2024/02/06 07:42:37;;;;;;;4.83;1.50;;;8.80;99.90;;;;;;4213557;28;20210;-77
2024/02/06 07:44:38;;;;;;;8.53;2.00;;;8.80;99.90;;;;;;4208636;28;20240;-78
2024/02/06 07:46:39;;;;;;;9.30;1.60;;;8.80;99.90;;;;;;4190271;28;20211;-78
2024/02/06 07:48:43;;;;;;;7.60;1.80;;;8.80;99.90;;;;;;4207908;28;20209;-78
2024/02/06 07:50:47;;;;;;;6.07;1.80;;;8.80;99.90;;;;;;4207923;28;20249;-78
2024/02/06 07:52:49;;;;;;;5.77;2.47;;;8.90;99.90;;;;;;4207690;28;20216;-83
2024/02/06 07:54:51;;;;;;;5.33;2.27;;;8.90;99.90;;;;;;4208179;28;20203;-78
2024/02/06 07:56:53;;;;;;;8.27;2.07;;;8.90;99.90;;;;;;4206733;28;20198;-78
2024/02/06 07:58:54;;;;;;;8.27;2.03;;;8.90;99.90;;;;;;4205278;28;20200;-77
2024/02/06 08:00:56;;;;;;;6.97;2.60;;;8.90;99.90;;;;;;4201977;28;20610;-77
2024/02/06 08:02:58;;;;;;;8.60;2.10;;;8.90;99.90;;;;;;4204501;28;20213;-77
2024/02/06 08:05:04;;;;;;;9.43;3.03;;;8.90;99.90;;;;;;4202313;28;20255;-76
2024/02/06 08:07:08;;;;;;;8.83;2.97;;;8.90;99.90;;;;;;4209467;28;20199;-77
2024/02/06 08:09:10;;;;;;;10.07;3.43;;;8.90;99.90;;;;;;4209373;28;20211;-77
2024/02/06 08:11:11;;;;;;;8.93;3.60;;;8.90;99.90;;;;;;4209134;28;20315;-77
2024/02/06 08:13:12;;;;;;;8.57;2.77;;;8.90;99.90;;;;;;4192870;28;20198;-77
2024/02/06 08:15:15;;;;;;;5.53;1.70;;;8.90;99.90;;;;;;4207743;28;20204;-76
2024/02/06 08:17:18;;;;;;;9.37;2.30;;;8.90;99.90;;;;;;4203837;28;20213;-75
2024/02/06 08:19:20;;;;;;;8.13;2.87;;;9.00;99.90;;;;;;4206701;28;20208;-76
2024/02/06 08:21:23;;;;;;;9.67;3.13;;;9.00;99.90;;;;;;4203966;28;20235;-76
2024/02/06 08:23:25;;;;;;;5.20;2.00;;;9.00;99.90;;;;;;4191944;28;20238;-77
2024/02/06 08:25:28;;;;;;;5.20;1.77;;;9.00;99.90;;;;;;4206765;28;20240;-77
2024/02/06 08:27:29;;;;;;;5.47;2.07;;;9.00;99.90;;;;;;4190073;28;20301;-77
2024/02/06 08:29:31;;;;;;;5.60;1.50;;;9.00;99.90;;;;;;4207834;28;20566;-77
2024/02/06 08:31:32;;;;;;;6.30;1.93;;;9.10;99.90;;;;;;4208983;28;20267;-77
2024/02/06 08:33:34;;;;;;;8.20;1.63;;;9.10;99.90;;;;;;4192715;28;20206;-77
2024/02/06 08:35:36;;;;;;;7.30;2.03;;;9.10;99.90;;;;;;4191866;28;20304;-77
2024/02/06 08:37:39;;;;;;;5.60;1.30;;;9.20;99.90;;;;;;4194950;28;20221;-77
2024/02/06 08:39:41;;;;;;;3.80;1.60;;;9.20;99.90;;;;;;4193855;28;20220;-77
2024/02/06 08:41:43;;;;;;;5.80;1.20;;;9.30;99.90;;;;;;4189936;28;20299;-77
2024/02/06 08:43:45;;;;;;;6.33;1.47;;;9.30;99.90;;;;;;4207032;28;20235;-78
2024/02/06 08:45:49;;;;;;;6.97;2.00;;;9.30;99.90;;;;;;4193064;28;20668;-77
2024/02/06 08:47:50;;;;;;;5.57;1.30;;;9.30;99.90;;;;;;4194126;28;20585;-77
2024/02/06 08:49:52;;;;;;;7.37;1.77;;;9.30;99.90;;;;;;4213316;28;20255;-77
2024/02/06 08:51:54;;;;;;;5.73;1.40;;;9.30;99.90;;;;;;4206579;28;20207;-77
2024/02/06 08:53:57;;;;;;;6.20;1.40;;;9.30;99.90;;;;;;4215839;28;20221;-76
2024/02/06 08:56:01;;;;;;;4.33;1.70;;;9.40;99.90;;;;;;4216267;28;20561;-75
2024/02/06 08:58:03;;;;;;;4.13;1.43;;;9.40;99.90;;;;;;4212973;28;20220;-76
2024/02/06 09:00:11;;;;;;;2.87;1.23;;;9.40;99.90;;;;;;4196422;28;20227;-76
2024/02/06 09:02:13;;;;;;;4.53;1.50;;;9.40;99.90;;;;;;4211413;28;20213;-76
2024/02/06 09:04:15;;;;;;;4.80;1.27;;;9.50;99.90;;;;;;4195230;28;20214;-77
2024/02/06 09:06:21;;;;;;;5.50;1.93;;;9.40;99.90;;;;;;4209288;28;20643;-76
2024/02/06 09:08:22;;;;;;;6.87;1.27;;;9.40;99.90;;;;;;4207395;28;20214;-77
2024/02/06 09:10:25;;;;;;;5.67;1.50;;;9.50;99.90;;;;;;4209787;28;20773;-76
2024/02/06 09:12:27;;;;;;;3.90;1.20;;;9.50;99.90;;;;;;4213056;28;20204;-77
2024/02/06 09:14:29;;;;;;;6.83;1.60;;;9.50;99.90;;;;;;4210400;28;20212;-77
2024/02/06 09:16:31;;;;;;;3.50;1.30;;;9.50;99.90;;;;;;4207343;28;20204;-77
2024/02/06 09:18:34;;;;;;;4.60;1.50;;;9.50;99.90;;;;;;4208406;28;20242;-77
2024/02/06 09:20:37;;;;;;;5.90;1.30;;;9.50;99.90;;;;;;4196108;28;20225;-76
2024/02/06 09:22:38;;;;;;;2.60;1.10;;;9.50;99.90;;;;;;4210824;28;20581;-77
2024/02/06 09:24:40;;;;;;;3.03;0.90;;;9.60;99.90;;;;;;4207742;28;20205;-76
2024/02/06 09:26:44;;;;;;;7.07;1.20;;;9.60;99.90;;;;;;4206148;28;20232;-77
2024/02/06 09:28:45;;;;;;;3.90;1.60;;;9.50;99.90;;;;;;4211157;28;20664;-76
2024/02/06 09:30:47;;;;;;;8.70;2.90;;;9.60;99.90;;;;;;4197765;28;20369;-77
2024/02/06 09:32:49;;;;;;;6.23;2.07;;;9.60;99.90;;;;;;4196749;28;20205;-77
2024/02/06 09:34:52;;;;;;;6.57;1.40;;;9.60;99.90;;;;;;4208431;28;20824;-76
2024/02/06 09:36:54;;;;;;;4.73;1.60;;;9.60;99.90;;;;;;4191627;28;20198;-77
2024/02/06 09:38:56;;;;;;;3.97;1.47;;;9.60;99.90;;;;;;4213745;28;20295;-77
2024/02/06 09:40:58;;;;;;;2.90;1.20;;;9.70;99.90;;;;;;4210754;28;20227;-77
2024/02/06 09:43:03;;;;;;;4.97;1.80;;;9.70;99.90;;;;;;4194870;28;20204;-77
2024/02/06 09:45:05;;;;;;;7.60;1.20;;;9.80;99.90;;;;;;4210288;28;20598;-76
2024/02/06 09:47:07;;;;;;;4.13;1.10;;;9.80;99.90;;;;;;4207860;28;20296;-77
2024/02/06 09:49:09;;;;;;;2.90;1.10;;;9.90;99.90;;;;;;4209746;28;20238;-77
2024/02/06 09:51:14;;;;;;;2.77;1.43;;;9.90;99.90;;;;;;4210761;28;20231;-76
2024/02/06 09:53:16;;;;;;;3.10;1.23;;;10.00;99.90;;;;;;4194549;28;20299;-76
2024/02/06 09:55:21;;;;;;;6.10;1.40;;;9.90;99.90;;;;;;4208031;28;20232;-76
2024/02/06 09:57:23;;;;;;;3.97;1.30;;;10.00;99.90;;;;;;4208915;28;20213;-76
2024/02/06 09:59:26;;;;;;;2.13;1.13;;;10.00;99.90;;;;;;4211439;28;20205;-76
2024/02/06 10:01:29;;;;;;;3.57;1.00;;;10.00;99.90;;;;;;4208975;28;20254;-76
2024/02/06 10:03:34;;;;;;;6.27;1.47;;;10.10;99.90;;;;;;4197066;28;20224;-76
2024/02/06 10:05:41;;;;;;;4.50;1.33;;;10.10;99.90;;;;;;4206074;28;20296;-76
2024/02/06 10:07:47;;;;;;;5.00;1.23;;;10.10;99.90;;;;;;4209121;28;20637;-76
2024/02/06 10:09:50;;;;;;;5.13;1.17;;;10.10;99.90;;;;;;4207084;28;20229;-76
2024/02/06 10:11:55;;;;;;;3.47;1.00;;;10.10;99.90;;;;;;4209203;28;20250;-76
2024/02/06 10:13:57;;;;;;;3.20;1.23;;;10.20;99.90;;;;;;4207859;28;20213;-76
2024/02/06 10:15:59;;;;;;;2.33;1.30;;;10.20;99.90;;;;;;4211476;28;20246;-76
2024/02/06 10:18:01;;;;;;;5.03;1.40;;;10.30;99.90;;;;;;4209158;28;20695;-76
2024/02/06 10:20:07;;;;;;;3.00;1.20;;;10.30;99.90;;;;;;4210443;28;20701;-77
2024/02/06 10:22:12;;;;;;;3.70;1.13;;;10.30;99.90;;;;;;4213119;28;20216;-76
2024/02/06 10:24:19;;;;;;;4.30;1.10;;;10.40;99.90;;;;;;4213130;28;20237;-77
2024/02/06 10:26:22;;;;;;;4.53;1.07;;;10.40;99.90;;;;;;4215291;28;20228;-77
2024/02/06 10:28:24;;;;;;;4.33;1.20;;;10.50;99.90;;;;;;4213463;28;20212;-79
2024/02/06 10:30:26;;;;;;;2.63;1.17;;;10.50;99.90;;;;;;4208813;28;20254;-77
2024/02/06 10:32:33;;;;;;;5.53;0.90;;;10.50;99.90;;;;;;4218419;28;20268;-77
2024/02/06 10:34:35;;;;;;;2.80;0.90;;;10.60;99.90;;;;;;4217380;28;20212;-75
2024/02/06 10:36:36;;;;;;;3.50;0.97;;;10.50;99.90;;;;;;4216379;28;20209;-79
2024/02/06 10:38:38;;;;;;;4.37;0.97;;;10.50;99.90;;;;;;4196743;28;20779;-78
2024/02/06 10:40:40;;;;;;;3.00;0.90;;;10.50;99.90;;;;;;4212113;28;20279;-77
2024/02/06 10:42:42;;;;;;;4.07;1.27;;;10.60;99.90;;;;;;4209003;28;20866;-77